Time;durP1;ratioP1;P1;durP2;ratioP2;P2;SDS_P1;SDS_P2;PMS_P1;PMS_P2;Temp;Humidity;BMP_temperature;BMP_pressure;BME280_temperature;BME280_humidity;BME280_pressure;Samples;Min_cycle;Max_cycle;Signal;HPM_P1;HPM_P2
2022/08/28 00:01:50;;;;;;;1.17;0.80;;;25.20;62.70;;;;;;5035344;28;20037;-70
2022/08/28 00:04:16;;;;;;;2.25;0.90;;;25.20;62.70;;;;;;5035267;28;20472;-70
2022/08/28 00:06:42;;;;;;;0.90;0.82;;;25.20;62.70;;;;;;5034098;28;20444;-70
2022/08/28 00:09:07;;;;;;;0.80;0.70;;;25.20;62.70;;;;;;5052479;28;20025;-70
2022/08/28 00:11:36;;;;;;;1.25;0.70;;;25.20;62.70;;;;;;5055210;28;20025;-70
2022/08/28 00:14:06;;;;;;;1.33;0.70;;;25.20;62.70;;;;;;5054000;28;20028;-70
2022/08/28 00:16:32;;;;;;;1.10;0.65;;;25.20;62.70;;;;;;5054893;28;20036;-70
2022/08/28 00:18:58;;;;;;;0.98;0.88;;;25.20;62.80;;;;;;5055043;28;20028;-70
2022/08/28 00:21:23;;;;;;;1.88;0.88;;;25.20;62.80;;;;;;5054911;28;20021;-70
2022/08/28 00:23:49;;;;;;;1.08;0.82;;;25.20;62.80;;;;;;5054868;28;20025;-70
2022/08/28 00:27:51;;;;;;;1.58;1.02;;;25.20;62.80;;;;;;5053992;28;20144;-70
2022/08/28 00:29:02;;;;;;;1.38;1.00;;;25.20;62.90;;;;;;5054789;28;20052;-70
2022/08/28 00:31:27;;;;;;;0.98;0.88;;;25.10;62.70;;;;;;5053350;28;20055;-70
2022/08/28 00:33:53;;;;;;;2.13;0.63;;;25.10;62.90;;;;;;5054587;28;20029;-70
2022/08/28 00:36:19;;;;;;;1.02;0.80;;;25.20;63.00;;;;;;5053502;28;20048;-70
2022/08/28 00:38:44;;;;;;;1.00;0.90;;;25.10;63.00;;;;;;5054676;28;20103;-70
2022/08/28 00:41:11;;;;;;;1.58;0.77;;;25.10;63.00;;;;;;5054705;28;20021;-70
2022/08/28 00:43:43;;;;;;;0.95;0.73;;;25.20;63.00;;;;;;5054670;28;20025;-70
2022/08/28 00:46:21;;;;;;;1.13;0.80;;;25.10;62.90;;;;;;5053240;28;20041;-70
2022/08/28 00:48:47;;;;;;;1.63;1.10;;;25.10;62.90;;;;;;5053433;28;20068;-70
2022/08/28 00:53:57;;;;;;;0.85;0.70;;;25.10;63.00;;;;;;5038503;28;20116;-70
2022/08/28 00:56:23;;;;;;;1.52;0.98;;;25.10;62.90;;;;;;5053237;28;20456;-70
2022/08/28 00:58:49;;;;;;;1.10;0.88;;;25.10;63.00;;;;;;5053072;28;20032;-70
2022/08/28 01:01:15;;;;;;;1.23;0.95;;;25.10;62.90;;;;;;5022565;28;20056;-70
2022/08/28 01:03:42;;;;;;;1.25;0.82;;;25.10;62.90;;;;;;5034292;28;20037;-70
2022/08/28 01:06:08;;;;;;;1.00;0.90;;;25.10;63.00;;;;;;5033150;28;20025;-70
2022/08/28 01:08:34;;;;;;;1.25;0.80;;;25.10;63.00;;;;;;5046922;28;20098;-70
2022/08/28 01:11:00;;;;;;;1.10;0.88;;;25.10;63.00;;;;;;5052760;28;20025;-70
2022/08/28 01:13:26;;;;;;;2.45;1.02;;;25.10;63.00;;;;;;5036321;28;20060;-70
2022/08/28 01:15:51;;;;;;;1.00;0.90;;;25.10;63.00;;;;;;5036080;28;20055;-70
2022/08/28 01:18:17;;;;;;;1.10;0.93;;;25.10;63.00;;;;;;5036299;28;20036;-70
2022/08/28 01:20:48;;;;;;;1.10;1.00;;;25.10;63.00;;;;;;5035951;28;20555;-70
2022/08/28 01:23:19;;;;;;;0.88;0.70;;;25.10;63.00;;;;;;5052591;28;20111;-70
2022/08/28 01:25:45;;;;;;;0.70;0.70;;;25.10;63.00;;;;;;5053586;28;20029;-70
2022/08/28 01:28:11;;;;;;;2.58;0.88;;;25.10;63.00;;;;;;5052655;28;20036;-70
2022/08/28 01:30:39;;;;;;;2.25;0.80;;;25.10;63.00;;;;;;5052177;28;20106;-70
2022/08/28 01:33:04;;;;;;;1.38;0.88;;;25.10;63.10;;;;;;5035893;28;20029;-69
2022/08/28 01:35:33;;;;;;;0.93;0.77;;;25.00;63.10;;;;;;5052299;28;20431;-70
2022/08/28 01:37:59;;;;;;;1.50;1.10;;;25.00;63.10;;;;;;5053587;28;20104;-70
2022/08/28 01:40:30;;;;;;;0.95;0.80;;;25.10;63.20;;;;;;5035707;28;20481;-69
2022/08/28 01:43:18;;;;;;;1.70;0.70;;;25.10;63.20;;;;;;5035960;28;20395;-69
2022/08/28 01:45:47;;;;;;;1.00;0.90;;;25.10;63.20;;;;;;5052093;28;20063;-69
2022/08/28 01:48:13;;;;;;;1.00;0.70;;;25.00;63.10;;;;;;5035864;28;20112;-69
2022/08/28 01:50:39;;;;;;;1.67;0.82;;;25.00;63.20;;;;;;5052218;28;20108;-69
2022/08/28 01:53:05;;;;;;;1.52;0.68;;;25.00;63.20;;;;;;5052091;28;20100;-69
2022/08/28 01:55:33;;;;;;;0.85;0.77;;;25.00;63.20;;;;;;5053238;28;20013;-69
2022/08/28 01:57:58;;;;;;;1.77;0.95;;;25.00;63.20;;;;;;5052985;28;20557;-69
2022/08/28 02:00:26;;;;;;;0.90;0.70;;;25.00;63.20;;;;;;5044978;28;20022;-69
2022/08/28 02:02:54;;;;;;;2.15;1.10;;;25.00;63.20;;;;;;5033194;28;20097;-69
2022/08/28 02:05:20;;;;;;;1.88;0.90;;;25.00;63.20;;;;;;5032210;28;20468;-69
2022/08/28 02:07:45;;;;;;;2.35;0.73;;;25.00;63.20;;;;;;5040224;28;20021;-69
2022/08/28 02:10:11;;;;;;;0.73;0.73;;;25.00;63.20;;;;;;5052948;28;20399;-70
2022/08/28 02:12:37;;;;;;;0.73;0.73;;;25.00;63.30;;;;;;5051418;28;20025;-70
2022/08/28 02:15:06;;;;;;;1.13;0.70;;;25.00;63.20;;;;;;5051718;28;20102;-69
2022/08/28 02:17:32;;;;;;;0.80;0.80;;;24.90;63.20;;;;;;5053139;28;20022;-69
2022/08/28 02:19:58;;;;;;;1.35;0.85;;;25.00;63.30;;;;;;5035136;28;20033;-69
2022/08/28 02:22:27;;;;;;;2.10;0.90;;;25.00;63.30;;;;;;5052806;28;20009;-70
2022/08/28 02:24:53;;;;;;;1.13;0.80;;;25.00;63.30;;;;;;5052805;28;20059;-70
2022/08/28 02:27:18;;;;;;;1.15;0.90;;;24.90;63.20;;;;;;5052427;28;20434;-69
2022/08/28 02:29:44;;;;;;;2.15;0.90;;;25.00;63.20;;;;;;5052615;28;20056;-69
2022/08/28 02:32:10;;;;;;;0.73;0.65;;;24.90;63.30;;;;;;5051178;28;20085;-69
2022/08/28 02:34:36;;;;;;;0.85;0.70;;;24.90;63.30;;;;;;5052542;28;20024;-69
2022/08/28 02:37:03;;;;;;;0.85;0.70;;;24.90;63.30;;;;;;5051093;28;20562;-69
2022/08/28 02:39:28;;;;;;;1.80;0.80;;;24.90;63.30;;;;;;5052628;28;20017;-69
2022/08/28 02:41:54;;;;;;;0.80;0.80;;;24.90;63.30;;;;;;5051113;28;20072;-69
2022/08/28 02:44:20;;;;;;;1.08;0.90;;;24.90;63.30;;;;;;5052514;28;20448;-69
2022/08/28 02:46:45;;;;;;;2.50;1.00;;;24.90;63.30;;;;;;5052400;28;20032;-69
2022/08/28 02:49:11;;;;;;;1.00;0.60;;;24.90;63.30;;;;;;5052296;28;20107;-69
2022/08/28 02:51:36;;;;;;;3.40;1.23;;;24.90;63.30;;;;;;5052343;28;20031;-69
2022/08/28 02:54:02;;;;;;;1.60;0.85;;;24.90;63.30;;;;;;5052252;28;20035;-69
2022/08/28 02:56:28;;;;;;;2.13;0.80;;;24.90;63.40;;;;;;5052029;28;20486;-70
2022/08/28 02:58:54;;;;;;;2.78;0.70;;;24.90;63.40;;;;;;5051258;28;20028;-70
2022/08/28 03:01:20;;;;;;;4.20;1.00;;;24.90;63.40;;;;;;5036306;28;20021;-70
2022/08/28 03:03:45;;;;;;;1.02;0.95;;;24.90;63.50;;;;;;5031148;28;20076;-70
2022/08/28 03:06:11;;;;;;;1.42;0.82;;;24.90;63.50;;;;;;5032294;28;20056;-70
2022/08/28 03:08:37;;;;;;;0.70;0.70;;;24.90;63.50;;;;;;5045384;28;20022;-69
2022/08/28 03:11:03;;;;;;;0.70;0.65;;;24.90;63.50;;;;;;5050722;28;20025;-70
2022/08/28 03:13:29;;;;;;;2.35;0.80;;;24.90;63.50;;;;;;5052161;28;20033;-69
2022/08/28 03:15:55;;;;;;;1.70;0.80;;;24.90;63.50;;;;;;5050964;28;20021;-69
2022/08/28 03:18:20;;;;;;;0.90;0.70;;;24.90;63.50;;;;;;5055616;28;20045;-69
2022/08/28 03:20:46;;;;;;;1.30;0.80;;;24.90;63.50;;;;;;5056336;28;20510;-70
2022/08/28 03:23:27;;;;;;;1.13;0.80;;;24.90;64.50;;;;;;5054691;28;20025;-69
2022/08/28 03:26:00;;;;;;;1.00;0.85;;;24.90;63.50;;;;;;5055997;28;20032;-69
2022/08/28 03:28:31;;;;;;;1.85;0.80;;;24.80;63.40;;;;;;5054865;28;20024;-69
2022/08/28 03:30:57;;;;;;;1.75;0.90;;;24.80;63.50;;;;;;5055800;28;20128;-70
2022/08/28 03:33:23;;;;;;;1.33;0.70;;;24.80;63.50;;;;;;5054577;28;20103;-69
2022/08/28 03:35:49;;;;;;;1.08;0.98;;;24.80;63.50;;;;;;5055905;28;20057;-69
2022/08/28 03:38:15;;;;;;;2.38;0.85;;;24.80;63.50;;;;;;5038068;28;20024;-69
2022/08/28 03:40:41;;;;;;;0.70;0.70;;;24.90;63.60;;;;;;5054475;28;20044;-69
2022/08/28 03:43:12;;;;;;;1.17;0.85;;;24.80;63.50;;;;;;5054508;28;20061;-69
2022/08/28 03:45:37;;;;;;;0.90;0.77;;;24.80;63.60;;;;;;5054748;28;20033;-70
2022/08/28 03:48:03;;;;;;;2.30;0.80;;;24.80;63.60;;;;;;5054133;28;20021;-69
2022/08/28 03:50:29;;;;;;;0.80;0.80;;;24.80;63.60;;;;;;5054502;28;20028;-70
2022/08/28 03:52:55;;;;;;;1.17;0.80;;;24.80;63.50;;;;;;5055472;28;20495;-70
2022/08/28 03:55:21;;;;;;;0.80;0.80;;;24.80;63.60;;;;;;5055260;28;20052;-70
2022/08/28 03:57:47;;;;;;;1.25;0.70;;;24.80;63.60;;;;;;5054205;28;20051;-69
2022/08/28 04:00:13;;;;;;;1.70;1.10;;;24.80;63.60;;;;;;5048946;28;20104;-69
2022/08/28 04:02:42;;;;;;;0.55;0.50;;;24.80;63.70;;;;;;5035474;28;20461;-69
2022/08/28 04:05:08;;;;;;;1.10;0.82;;;24.80;63.70;;;;;;5034155;28;20032;-69
2022/08/28 04:07:34;;;;;;;1.08;0.77;;;24.80;63.70;;;;;;5039907;28;20016;-69
2022/08/28 04:09:59;;;;;;;1.02;0.77;;;24.80;63.70;;;;;;5053709;28;20396;-69
2022/08/28 04:12:25;;;;;;;1.02;0.80;;;24.80;63.70;;;;;;5055137;28;20032;-69
2022/08/28 04:14:51;;;;;;;1.10;0.68;;;24.80;63.70;;;;;;5055356;28;20050;-69
2022/08/28 04:17:16;;;;;;;0.82;0.80;;;24.80;63.70;;;;;;5053767;28;20053;-69
2022/08/28 04:19:43;;;;;;;12.65;1.20;;;24.70;63.70;;;;;;5055128;28;20468;-69
2022/08/28 04:22:09;;;;;;;1.63;0.80;;;24.70;63.70;;;;;;5055024;28;20021;-69
2022/08/28 04:24:35;;;;;;;0.98;0.75;;;24.70;63.70;;;;;;5037009;28;20037;-69
2022/08/28 04:27:01;;;;;;;1.10;0.80;;;24.70;63.70;;;;;;5055085;28;20021;-69
2022/08/28 04:29:26;;;;;;;1.45;0.98;;;24.70;63.70;;;;;;5053721;28;20029;-69
2022/08/28 04:31:52;;;;;;;1.77;0.80;;;24.70;63.70;;;;;;5054813;28;20060;-69
2022/08/28 04:34:18;;;;;;;1.08;0.85;;;24.70;63.70;;;;;;5053710;28;20029;-69
2022/08/28 04:36:45;;;;;;;1.20;0.80;;;24.70;63.70;;;;;;5053390;28;20021;-69
2022/08/28 04:39:10;;;;;;;1.45;0.90;;;24.70;63.70;;;;;;5054328;28;20391;-69
2022/08/28 04:41:37;;;;;;;0.98;0.88;;;24.70;63.70;;;;;;5054845;28;20033;-69
2022/08/28 04:44:03;;;;;;;1.20;0.90;;;24.70;63.80;;;;;;5053366;28;20028;-69
2022/08/28 04:46:28;;;;;;;0.98;0.80;;;24.70;63.80;;;;;;5053502;28;20382;-69
2022/08/28 04:48:54;;;;;;;0.85;0.80;;;24.70;63.80;;;;;;5054479;28;20035;-69
2022/08/28 04:51:20;;;;;;;1.17;0.60;;;24.70;63.80;;;;;;5036762;28;20491;-69
2022/08/28 04:53:46;;;;;;;1.27;0.80;;;24.60;63.80;;;;;;5054290;28;20029;-69
2022/08/28 04:56:12;;;;;;;1.23;0.80;;;24.60;63.80;;;;;;5053152;28;20597;-69
2022/08/28 04:58:38;;;;;;;1.27;0.90;;;24.60;63.80;;;;;;5054290;28;20100;-69
2022/08/28 05:01:08;;;;;;;1.55;1.05;;;24.60;63.80;;;;;;5024277;28;20104;-69
2022/08/28 05:03:34;;;;;;;1.30;0.80;;;24.60;63.80;;;;;;5033463;28;20052;-70
2022/08/28 05:06:00;;;;;;;2.08;1.00;;;24.70;63.90;;;;;;5034220;28;20495;-69
2022/08/28 05:08:27;;;;;;;1.02;0.70;;;24.70;63.90;;;;;;5045520;28;20025;-69
2022/08/28 05:10:53;;;;;;;1.25;0.70;;;24.60;63.80;;;;;;5052930;28;20021;-69
2022/08/28 05:13:19;;;;;;;1.45;0.52;;;24.60;63.80;;;;;;5035995;28;20490;-69
2022/08/28 05:15:47;;;;;;;0.98;0.77;;;24.60;63.80;;;;;;5052895;28;20067;-69
2022/08/28 05:18:13;;;;;;;5.20;0.93;;;24.60;63.90;;;;;;5052823;28;20028;-69
2022/08/28 05:20:41;;;;;;;1.75;0.93;;;24.60;63.90;;;;;;5036372;28;20025;-69
2022/08/28 05:23:08;;;;;;;9.10;1.65;;;24.60;63.90;;;;;;5052358;28;20155;-69
2022/08/28 05:25:35;;;;;;;3.42;0.90;;;24.60;63.90;;;;;;5052680;28;20517;-69
2022/08/28 05:28:01;;;;;;;1.63;0.73;;;24.60;63.90;;;;;;5053638;28;20501;-69
2022/08/28 05:30:27;;;;;;;1.05;0.70;;;24.60;63.90;;;;;;5053568;28;20163;-69
2022/08/28 05:32:52;;;;;;;10.50;1.05;;;24.60;63.90;;;;;;5052504;28;20025;-69
2022/08/28 05:35:18;;;;;;;3.25;0.80;;;24.60;64.00;;;;;;5052439;28;20028;-69
2022/08/28 05:37:44;;;;;;;4.22;0.90;;;24.60;64.00;;;;;;5052142;28;20021;-69
2022/08/28 05:40:10;;;;;;;3.90;1.00;;;24.60;64.10;;;;;;5053217;28;20380;-69
2022/08/28 05:42:37;;;;;;;2.08;0.75;;;24.60;64.00;;;;;;5049015;28;20037;-69
2022/08/28 05:45:03;;;;;;;1.15;0.68;;;24.60;64.00;;;;;;5053813;28;20491;-69
2022/08/28 05:47:31;;;;;;;5.72;1.08;;;24.60;64.10;;;;;;5050701;28;20503;-69
2022/08/28 05:49:57;;;;;;;3.35;0.90;;;24.60;64.10;;;;;;5051629;28;20479;-69
2022/08/28 05:52:23;;;;;;;2.10;0.82;;;24.60;64.10;;;;;;5050822;28;20021;-69
2022/08/28 05:54:49;;;;;;;9.40;1.00;;;24.60;64.20;;;;;;5052784;28;20507;-69
2022/08/28 05:57:14;;;;;;;1.55;1.05;;;24.60;64.20;;;;;;5052709;28;20067;-69
2022/08/28 05:59:40;;;;;;;4.45;1.02;;;24.60;64.20;;;;;;5051714;28;20037;-69
2022/08/28 06:02:06;;;;;;;1.92;0.80;;;24.60;64.20;;;;;;5044915;28;20025;-69
2022/08/28 06:04:31;;;;;;;1.38;0.85;;;24.60;64.20;;;;;;5051778;28;20400;-69
2022/08/28 06:06:57;;;;;;;1.88;0.98;;;24.60;64.20;;;;;;5051217;28;20021;-69
2022/08/28 06:09:26;;;;;;;3.33;1.17;;;24.60;64.30;;;;;;5031586;28;20021;-69
2022/08/28 06:11:57;;;;;;;6.07;0.93;;;24.50;64.20;;;;;;5032127;28;20480;-69
2022/08/28 06:14:23;;;;;;;3.50;1.00;;;24.50;64.20;;;;;;5031907;28;20109;-69
2022/08/28 06:16:53;;;;;;;1.98;0.80;;;24.60;64.30;;;;;;5032605;28;20105;-69
2022/08/28 06:19:21;;;;;;;0.90;0.70;;;24.60;64.20;;;;;;5031899;28;20033;-69
2022/08/28 06:21:47;;;;;;;1.88;0.80;;;24.60;64.30;;;;;;5031164;28;20014;-69
2022/08/28 06:24:13;;;;;;;1.52;0.85;;;24.50;64.30;;;;;;5031553;28;20120;-69
2022/08/28 06:26:40;;;;;;;3.30;0.90;;;24.60;64.40;;;;;;5015140;28;20035;-69
2022/08/28 06:29:07;;;;;;;1.95;0.90;;;24.50;64.30;;;;;;5031073;28;20025;-69
2022/08/28 06:31:33;;;;;;;3.33;0.80;;;24.50;64.30;;;;;;5031381;28;20125;-69
2022/08/28 06:33:59;;;;;;;1.73;0.90;;;24.50;64.30;;;;;;5032405;28;20108;-69
2022/08/28 06:36:28;;;;;;;1.15;0.90;;;24.50;64.30;;;;;;5031343;28;20013;-69
2022/08/28 06:38:57;;;;;;;1.83;1.00;;;24.50;64.40;;;;;;5031653;28;20017;-69
2022/08/28 06:41:23;;;;;;;1.10;0.80;;;24.50;64.30;;;;;;5015159;28;20492;-69
2022/08/28 06:43:48;;;;;;;2.25;0.82;;;24.50;64.30;;;;;;5015024;28;20087;-69
2022/08/28 06:46:14;;;;;;;4.35;1.33;;;24.50;64.40;;;;;;5032394;28;20055;-69
2022/08/28 06:48:40;;;;;;;4.32;1.00;;;24.50;64.40;;;;;;5032252;28;20101;-69
2022/08/28 06:51:08;;;;;;;3.53;1.10;;;24.50;64.50;;;;;;5032031;28;20045;-69
2022/08/28 06:53:34;;;;;;;3.42;0.90;;;24.50;64.50;;;;;;5032356;28;20033;-69
2022/08/28 06:56:11;;;;;;;3.13;0.90;;;24.50;64.50;;;;;;5015002;28;20031;-69
2022/08/28 06:58:39;;;;;;;2.22;0.95;;;24.50;64.50;;;;;;5015594;28;20104;-69
2022/08/28 07:01:17;;;;;;;1.60;0.63;;;24.50;64.60;;;;;;5017797;28;20017;-69
2022/08/28 07:03:43;;;;;;;1.85;1.05;;;24.50;64.50;;;;;;5051300;28;20103;-69
2022/08/28 07:06:10;;;;;;;4.82;1.23;;;24.50;64.60;;;;;;5050645;28;20021;-69
2022/08/28 07:08:35;;;;;;;0.95;0.80;;;24.50;64.60;;;;;;5030853;28;20371;-69
2022/08/28 07:11:09;;;;;;;3.72;0.80;;;24.50;64.60;;;;;;5048018;28;20029;-69
2022/08/28 07:13:35;;;;;;;3.78;0.80;;;24.50;64.60;;;;;;5034663;28;20105;-69
2022/08/28 07:16:01;;;;;;;1.75;0.90;;;24.50;64.60;;;;;;5051112;28;20041;-69
2022/08/28 07:18:28;;;;;;;3.42;0.77;;;24.50;64.60;;;;;;5051058;28;20126;-69
2022/08/28 07:20:57;;;;;;;3.60;0.88;;;24.50;64.60;;;;;;5052482;28;20024;-69
2022/08/28 07:23:23;;;;;;;1.95;1.00;;;24.50;64.60;;;;;;5051121;28;20039;-69
2022/08/28 07:25:49;;;;;;;2.50;0.70;;;24.50;64.70;;;;;;5052638;28;20471;-69
2022/08/28 07:28:15;;;;;;;4.28;0.90;;;24.50;64.60;;;;;;5052302;28;20029;-69
2022/08/28 07:30:41;;;;;;;1.98;0.80;;;24.50;64.70;;;;;;5052178;28;20052;-69
2022/08/28 07:33:07;;;;;;;1.75;0.80;;;24.50;64.60;;;;;;5050882;28;20419;-69
2022/08/28 07:35:32;;;;;;;4.00;0.77;;;24.50;64.70;;;;;;5052470;28;20025;-69
2022/08/28 07:37:58;;;;;;;0.85;0.80;;;24.50;64.70;;;;;;5052321;28;20021;-69
2022/08/28 07:40:23;;;;;;;1.20;0.85;;;24.50;64.60;;;;;;5052285;28;20031;-69
2022/08/28 07:45:34;;;;;;;1.80;0.80;;;24.50;64.60;;;;;;5052383;28;20072;-69
2022/08/28 07:48:07;;;;;;;3.58;0.98;;;24.50;64.70;;;;;;5051875;28;20104;-69
2022/08/28 07:50:33;;;;;;;2.22;0.90;;;24.50;64.70;;;;;;5035396;28;20636;-69
2022/08/28 07:52:59;;;;;;;1.67;0.90;;;24.50;64.60;;;;;;5052387;28;20029;-69
2022/08/28 07:55:26;;;;;;;3.38;1.10;;;24.40;64.60;;;;;;5052103;28;20040;-69
2022/08/28 07:57:52;;;;;;;2.95;0.80;;;24.50;64.70;;;;;;5052308;28;20086;-69
2022/08/28 08:00:18;;;;;;;0.80;0.75;;;24.50;64.70;;;;;;5046277;28;20029;-69
2022/08/28 08:02:44;;;;;;;5.35;0.93;;;24.50;64.80;;;;;;5031365;28;20094;-69
2022/08/28 08:05:09;;;;;;;2.78;1.00;;;24.50;64.70;;;;;;5036001;28;20030;-69
2022/08/28 08:07:38;;;;;;;2.00;0.90;;;24.50;64.70;;;;;;5041587;28;20020;-69
2022/08/28 08:10:05;;;;;;;12.68;0.68;;;24.40;64.70;;;;;;5055533;28;20025;-69
2022/08/28 08:12:33;;;;;;;2.17;1.02;;;24.50;64.80;;;;;;5054604;28;20100;-69
2022/08/28 08:14:58;;;;;;;1.17;0.70;;;24.50;64.80;;;;;;5055697;28;20017;-69
2022/08/28 08:17:24;;;;;;;1.20;0.60;;;24.50;64.90;;;;;;5055681;28;20078;-69
2022/08/28 08:19:50;;;;;;;2.67;1.08;;;24.50;64.80;;;;;;5054432;28;20552;-69
2022/08/28 08:22:15;;;;;;;2.53;0.70;;;24.40;64.80;;;;;;5055806;28;20021;-69
2022/08/28 08:24:41;;;;;;;2.38;0.93;;;24.40;64.80;;;;;;5054499;28;20032;-69
2022/08/28 08:27:09;;;;;;;1.17;0.73;;;24.50;64.90;;;;;;5055432;28;20092;-69
2022/08/28 08:29:35;;;;;;;2.30;0.68;;;24.40;64.80;;;;;;5053996;28;20049;-69
2022/08/28 08:32:04;;;;;;;1.67;0.90;;;24.40;64.80;;;;;;5053809;28;20894;-68
2022/08/28 08:34:31;;;;;;;6.22;1.60;;;24.40;64.30;;;;;;5053893;28;20063;-68
2022/08/28 08:36:56;;;;;;;2.65;1.30;;;24.40;63.70;;;;;;5037799;28;20021;-68
2022/08/28 08:39:22;;;;;;;4.60;1.05;;;24.30;63.20;;;;;;5048245;28;20029;-68
2022/08/28 08:41:50;;;;;;;3.97;1.73;;;24.20;63.00;;;;;;5036803;28;20026;-68
2022/08/28 08:44:47;;;;;;;8.10;1.20;;;24.20;62.70;;;;;;5017620;28;20116;-67
2022/08/28 08:47:18;;;;;;;4.28;1.40;;;24.20;62.70;;;;;;5034160;28;20029;-69
2022/08/28 08:49:55;;;;;;;6.70;1.45;;;24.20;62.50;;;;;;5044791;28;20083;-69
2022/08/28 08:52:20;;;;;;;4.13;1.23;;;24.10;62.30;;;;;;5034329;28;20022;-69
2022/08/28 08:55:00;;;;;;;4.40;1.60;;;24.10;62.10;;;;;;5034581;28;20498;-68
2022/08/28 08:57:26;;;;;;;4.43;1.30;;;24.10;62.20;;;;;;5020634;28;20104;-75
2022/08/28 08:59:52;;;;;;;2.67;1.25;;;24.10;61.80;;;;;;5065096;28;20024;-76
2022/08/28 09:02:21;;;;;;;4.22;1.40;;;24.30;61.20;;;;;;5059775;28;20083;-75
2022/08/28 09:04:54;;;;;;;3.03;1.20;;;24.40;60.70;;;;;;5057193;28;20033;-75
2022/08/28 09:07:29;;;;;;;1.80;0.90;;;24.40;60.30;;;;;;5053941;28;20025;-75
2022/08/28 09:09:55;;;;;;;2.83;1.08;;;24.50;60.50;;;;;;5038186;28;20032;-76
2022/08/28 09:12:24;;;;;;;2.38;1.20;;;24.60;59.90;;;;;;5053417;28;20025;-75
2022/08/28 09:15:25;;;;;;;4.07;1.25;;;24.60;60.00;;;;;;5047205;28;20028;-75
2022/08/28 09:18:07;;;;;;;3.80;1.33;;;24.60;60.00;;;;;;5055657;28;20061;-74
2022/08/28 09:20:33;;;;;;;2.80;1.40;;;24.60;59.30;;;;;;5041121;28;20064;-75
2022/08/28 09:22:59;;;;;;;2.25;1.25;;;24.70;59.60;;;;;;5072491;28;20043;-75
2022/08/28 09:25:43;;;;;;;3.22;1.10;;;24.80;59.40;;;;;;5055513;28;20063;-73
2022/08/28 09:28:12;;;;;;;1.70;1.00;;;24.80;59.20;;;;;;5071931;28;20107;-73
2022/08/28 09:30:38;;;;;;;3.00;1.10;;;24.80;58.90;;;;;;5038669;28;20056;-73
2022/08/28 09:33:04;;;;;;;2.17;0.98;;;24.80;58.70;;;;;;5019099;28;20033;-73
2022/08/28 09:35:31;;;;;;;1.98;0.90;;;24.80;58.50;;;;;;5052217;28;20083;-73
2022/08/28 09:38:20;;;;;;;2.67;1.48;;;24.80;58.40;;;;;;5035505;28;20045;-73
2022/08/28 09:43:32;;;;;;;1.77;0.90;;;24.80;58.10;;;;;;5023859;28;20040;-73
2022/08/28 09:46:16;;;;;;;3.42;1.30;;;24.80;57.80;;;;;;5051979;28;20167;-73
2022/08/28 09:48:43;;;;;;;4.57;1.25;;;24.80;58.70;;;;;;5051966;28;20499;-73
2022/08/28 09:51:10;;;;;;;1.40;1.08;;;24.90;57.30;;;;;;5051730;28;20123;-71
2022/08/28 09:53:58;;;;;;;1.98;0.95;;;24.90;57.90;;;;;;5027730;28;20627;-71
2022/08/28 09:56:32;;;;;;;1.67;0.93;;;24.90;58.10;;;;;;5034978;28;20033;-71
2022/08/28 09:59:13;;;;;;;1.15;0.82;;;24.90;57.70;;;;;;5051953;28;20033;-71
2022/08/28 10:02:17;;;;;;;2.60;0.90;;;24.90;58.30;;;;;;5018136;28;20056;-71
2022/08/28 10:04:59;;;;;;;1.35;0.90;;;24.90;58.80;;;;;;5033380;28;20024;-71
2022/08/28 10:07:25;;;;;;;2.55;0.88;;;25.00;57.80;;;;;;5042976;28;20068;-72
2022/08/28 10:10:06;;;;;;;1.90;0.77;;;25.00;57.70;;;;;;5062224;28;20068;-71
2022/08/28 10:12:52;;;;;;;1.80;1.00;;;24.90;57.50;;;;;;5035026;28;20442;-72
2022/08/28 10:15:31;;;;;;;1.95;0.77;;;25.00;57.10;;;;;;5070900;28;20086;-70
2022/08/28 10:18:11;;;;;;;1.65;0.80;;;24.90;58.10;;;;;;5038726;28;20017;-71
2022/08/28 10:21:08;;;;;;;1.70;0.88;;;24.90;57.90;;;;;;5068945;28;20140;-70
2022/08/28 10:24:01;;;;;;;3.67;1.00;;;25.00;56.90;;;;;;5020005;28;20196;-70
2022/08/28 10:26:33;;;;;;;1.48;0.95;;;24.90;56.90;;;;;;5032813;28;20036;-70
2022/08/28 10:29:17;;;;;;;2.50;0.65;;;24.90;56.40;;;;;;5050898;28;20029;-71
2022/08/28 10:31:57;;;;;;;2.00;0.90;;;24.90;56.40;;;;;;5033792;28;20080;-71
2022/08/28 10:34:33;;;;;;;1.42;0.90;;;24.90;57.20;;;;;;5052403;28;20091;-71
2022/08/28 10:37:07;;;;;;;2.30;0.80;;;24.90;56.20;;;;;;5051677;28;20468;-71
2022/08/28 10:39:53;;;;;;;1.50;0.80;;;24.90;56.40;;;;;;5069532;28;20047;-71
2022/08/28 10:42:40;;;;;;;1.02;0.70;;;25.00;56.40;;;;;;5055749;28;20021;-71
2022/08/28 10:45:10;;;;;;;1.00;0.60;;;25.00;57.40;;;;;;5072707;28;20069;-71
2022/08/28 10:47:38;;;;;;;1.40;0.68;;;25.00;57.30;;;;;;5071413;28;20110;-71
2022/08/28 10:50:09;;;;;;;2.45;0.70;;;25.00;57.60;;;;;;5054689;28;20013;-71
2022/08/28 10:52:53;;;;;;;1.50;0.80;;;25.00;56.50;;;;;;5071344;28;20475;-71
2022/08/28 10:55:46;;;;;;;2.55;0.80;;;25.00;56.80;;;;;;5055100;28;20024;-64
2022/08/28 10:58:12;;;;;;;2.55;1.00;;;25.00;57.90;;;;;;5071480;28;20028;-65
2022/08/28 11:00:38;;;;;;;1.65;0.57;;;24.90;56.40;;;;;;5037408;28;20021;-64
2022/08/28 11:03:12;;;;;;;2.00;0.80;;;24.80;57.20;;;;;;5031270;28;20037;-64
2022/08/28 11:05:51;;;;;;;2.15;0.80;;;24.80;57.70;;;;;;5031229;28;20480;-65
2022/08/28 11:08:25;;;;;;;1.40;0.45;;;24.80;57.70;;;;;;5043887;28;20028;-65
2022/08/28 11:10:51;;;;;;;1.77;0.80;;;24.80;58.00;;;;;;5035124;28;20025;-65
2022/08/28 11:13:42;;;;;;;2.53;0.90;;;24.70;58.40;;;;;;5065811;28;20410;-64
2022/08/28 11:16:17;;;;;;;1.42;0.60;;;24.70;58.10;;;;;;5069422;28;20033;-64
2022/08/28 11:19:08;;;;;;;0.65;0.60;;;24.70;57.90;;;;;;5051417;28;20376;-65
2022/08/28 11:21:48;;;;;;;1.23;0.50;;;24.70;58.60;;;;;;5050475;28;20024;-64
2022/08/28 11:24:38;;;;;;;0.85;0.55;;;24.70;57.00;;;;;;5050307;28;20108;-64
2022/08/28 11:27:31;;;;;;;0.65;0.60;;;24.60;58.10;;;;;;5051459;28;20032;-64
2022/08/28 11:30:13;;;;;;;1.17;0.75;;;24.60;58.10;;;;;;5051314;28;20032;-64
2022/08/28 11:32:51;;;;;;;2.58;0.88;;;24.60;58.20;;;;;;5051325;28;20039;-65
2022/08/28 11:35:29;;;;;;;2.28;0.60;;;24.70;58.40;;;;;;5051489;28;20017;-65
2022/08/28 11:37:56;;;;;;;1.77;0.73;;;24.60;58.50;;;;;;5052253;28;20029;-64
2022/08/28 11:40:31;;;;;;;0.88;0.65;;;24.60;58.20;;;;;;5037697;28;20044;-66
2022/08/28 11:43:14;;;;;;;1.23;0.82;;;24.70;58.90;;;;;;5055293;28;20025;-64
2022/08/28 11:45:45;;;;;;;1.67;0.70;;;24.60;58.50;;;;;;5055334;28;20029;-65
2022/08/28 11:48:38;;;;;;;1.38;0.63;;;24.70;58.60;;;;;;5055200;28;20025;-64
2022/08/28 11:51:16;;;;;;;2.45;0.77;;;24.80;58.80;;;;;;5055217;28;20072;-64
2022/08/28 11:53:47;;;;;;;0.70;0.45;;;24.70;58.50;;;;;;5053634;28;20117;-65
2022/08/28 11:56:12;;;;;;;1.35;0.70;;;24.70;58.90;;;;;;5051943;28;20495;-65
2022/08/28 11:59:00;;;;;;;1.80;0.70;;;24.70;59.00;;;;;;5054705;28;20021;-64
2022/08/28 12:01:28;;;;;;;1.20;0.60;;;24.80;58.90;;;;;;5039424;28;20060;-64
2022/08/28 12:04:14;;;;;;;1.48;0.57;;;24.80;59.00;;;;;;5033703;28;20033;-65
2022/08/28 12:06:49;;;;;;;1.25;0.68;;;24.80;58.90;;;;;;5034717;28;20104;-64
2022/08/28 12:09:39;;;;;;;1.75;0.93;;;24.80;59.40;;;;;;5053900;28;20013;-64
2022/08/28 12:12:25;;;;;;;1.77;0.70;;;24.80;59.10;;;;;;5054270;28;20017;-65
2022/08/28 12:14:53;;;;;;;2.65;1.10;;;24.80;59.90;;;;;;5052049;28;20052;-64
2022/08/28 12:17:24;;;;;;;2.85;1.00;;;24.80;59.10;;;;;;5052298;28;20116;-64
2022/08/28 12:20:29;;;;;;;0.88;0.77;;;24.80;58.40;;;;;;5035562;28;20033;-64
2022/08/28 12:23:04;;;;;;;1.17;0.75;;;24.80;58.40;;;;;;4953876;29;20110;-64
2022/08/28 12:25:32;;;;;;;2.30;0.85;;;24.80;58.40;;;;;;4938954;29;20043;-65
2022/08/28 12:28:03;;;;;;;1.30;0.70;;;24.80;58.50;;;;;;4954045;29;20032;-64
2022/08/28 12:30:39;;;;;;;0.93;0.70;;;24.80;58.70;;;;;;4938599;29;20458;-64
2022/08/28 12:33:07;;;;;;;1.58;0.90;;;24.80;58.80;;;;;;4938694;29;20561;-65
2022/08/28 12:35:33;;;;;;;1.80;1.00;;;24.80;59.10;;;;;;4937938;29;20034;-64
2022/08/28 12:38:02;;;;;;;3.65;1.02;;;24.80;59.30;;;;;;4953642;29;20039;-64
2022/08/28 12:40:31;;;;;;;4.38;1.23;;;24.90;59.80;;;;;;4953953;29;20019;-64
2022/08/28 12:42:59;;;;;;;2.80;1.10;;;24.90;59.90;;;;;;4937949;29;20019;-64
2022/08/28 12:46:02;;;;;;;2.38;1.00;;;24.90;60.20;;;;;;4937847;29;20047;-64
2022/08/28 12:48:46;;;;;;;1.58;0.80;;;24.90;60.00;;;;;;4950756;29;20549;-64
2022/08/28 12:51:13;;;;;;;1.85;1.17;;;25.00;59.80;;;;;;4940383;28;20043;-64
2022/08/28 12:53:39;;;;;;;3.55;1.25;;;25.00;59.20;;;;;;4956827;28;20513;-64
2022/08/28 12:56:11;;;;;;;2.67;1.40;;;25.00;59.20;;;;;;4986280;28;20036;-64
2022/08/28 12:58:38;;;;;;;2.67;1.10;;;25.00;59.70;;;;;;5052651;28;20021;-64
2022/08/28 13:01:27;;;;;;;3.25;1.40;;;25.00;59.90;;;;;;5049296;28;20044;-64
2022/08/28 13:04:01;;;;;;;3.45;1.00;;;25.00;59.90;;;;;;5032644;28;20075;-64
2022/08/28 13:06:29;;;;;;;3.42;1.40;;;25.10;59.50;;;;;;5042714;28;20025;-64
2022/08/28 13:09:12;;;;;;;2.75;1.35;;;25.10;58.90;;;;;;5035836;28;20570;-65